sensor_id;sensor_type;location;lat;lon;timestamp;P1;durP1;ratioP1;P2;durP2;ratioP2
2896;SDS011;1458;49.728;9.228;2023-04-03T00:00:57;1.30;;;1.30;;
2896;SDS011;1458;49.728;9.228;2023-04-03T00:03:25;1.30;;;1.30;;
2896;SDS011;1458;49.728;9.228;2023-04-03T00:05:52;1.30;;;1.30;;
2896;SDS011;1458;49.728;9.228;2023-04-03T00:08:20;1.20;;;1.20;;
2896;SDS011;1458;49.728;9.228;2023-04-03T00:10:48;1.20;;;1.20;;
2896;SDS011;1458;49.728;9.228;2023-04-03T00:13:17;1.20;;;1.20;;
2896;SDS011;1458;49.728;9.228;2023-04-03T00:15:44;1.20;;;1.20;;
2896;SDS011;1458;49.728;9.228;2023-04-03T00:18:12;1.20;;;1.20;;
2896;SDS011;1458;49.728;9.228;2023-04-03T00:20:39;1.10;;;1.10;;
2896;SDS011;1458;49.728;9.228;2023-04-03T00:23:07;1.10;;;1.10;;
2896;SDS011;1458;49.728;9.228;2023-04-03T00:25:34;1.00;;;1.00;;
2896;SDS011;1458;49.728;9.228;2023-04-03T00:28:02;1.00;;;1.00;;
2896;SDS011;1458;49.728;9.228;2023-04-03T00:30:32;1.00;;;1.00;;
2896;SDS011;1458;49.728;9.228;2023-04-03T00:32:59;1.30;;;1.30;;
2896;SDS011;1458;49.728;9.228;2023-04-03T00:35:27;1.10;;;1.10;;
2896;SDS011;1458;49.728;9.228;2023-04-03T00:37:55;1.20;;;1.20;;
2896;SDS011;1458;49.728;9.228;2023-04-03T00:40:23;1.00;;;1.00;;
2896;SDS011;1458;49.728;9.228;2023-04-03T00:42:55;1.00;;;1.00;;
2896;SDS011;1458;49.728;9.228;2023-04-03T00:45:36;1.00;;;1.00;;
2896;SDS011;1458;49.728;9.228;2023-04-03T00:48:06;1.00;;;1.00;;
2896;SDS011;1458;49.728;9.228;2023-04-03T00:50:38;1.00;;;1.00;;
2896;SDS011;1458;49.728;9.228;2023-04-03T00:53:08;1.10;;;1.10;;
2896;SDS011;1458;49.728;9.228;2023-04-03T00:55:41;1.10;;;1.10;;
2896;SDS011;1458;49.728;9.228;2023-04-03T00:58:10;1.00;;;1.00;;
2896;SDS011;1458;49.728;9.228;2023-04-03T01:00:40;1.00;;;1.00;;
2896;SDS011;1458;49.728;9.228;2023-04-03T01:03:13;0.90;;;0.90;;
2896;SDS011;1458;49.728;9.228;2023-04-03T01:05:40;0.90;;;0.90;;
2896;SDS011;1458;49.728;9.228;2023-04-03T01:08:08;1.00;;;1.00;;
2896;SDS011;1458;49.728;9.228;2023-04-03T01:10:35;0.90;;;0.90;;
2896;SDS011;1458;49.728;9.228;2023-04-03T01:13:09;0.90;;;0.90;;
2896;SDS011;1458;49.728;9.228;2023-04-03T01:15:51;0.90;;;0.90;;
2896;SDS011;1458;49.728;9.228;2023-04-03T01:18:19;0.90;;;0.90;;
2896;SDS011;1458;49.728;9.228;2023-04-03T01:24:22;0.90;;;0.90;;
2896;SDS011;1458;49.728;9.228;2023-04-03T01:27:01;0.80;;;0.80;;
2896;SDS011;1458;49.728;9.228;2023-04-03T01:29:32;0.80;;;0.80;;
2896;SDS011;1458;49.728;9.228;2023-04-03T01:32:01;0.80;;;0.80;;
2896;SDS011;1458;49.728;9.228;2023-04-03T01:34:30;0.90;;;0.90;;
2896;SDS011;1458;49.728;9.228;2023-04-03T01:36:59;1.00;;;1.00;;
2896;SDS011;1458;49.728;9.228;2023-04-03T01:39:26;0.90;;;0.90;;
2896;SDS011;1458;49.728;9.228;2023-04-03T01:41:55;0.90;;;0.90;;
2896;SDS011;1458;49.728;9.228;2023-04-03T01:44:34;1.00;;;1.00;;
2896;SDS011;1458;49.728;9.228;2023-04-03T01:47:03;0.90;;;0.90;;
2896;SDS011;1458;49.728;9.228;2023-04-03T01:49:33;0.90;;;0.90;;
2896;SDS011;1458;49.728;9.228;2023-04-03T01:52:01;0.90;;;0.90;;
2896;SDS011;1458;49.728;9.228;2023-04-03T01:54:28;0.90;;;0.90;;
2896;SDS011;1458;49.728;9.228;2023-04-03T01:56:56;0.80;;;0.80;;
2896;SDS011;1458;49.728;9.228;2023-04-03T01:59:23;1.00;;;1.00;;
2896;SDS011;1458;49.728;9.228;2023-04-03T02:01:51;0.77;;;0.77;;
2896;SDS011;1458;49.728;9.228;2023-04-03T02:04:20;0.83;;;0.83;;
2896;SDS011;1458;49.728;9.228;2023-04-03T02:06:48;0.90;;;0.90;;
2896;SDS011;1458;49.728;9.228;2023-04-03T02:09:15;0.80;;;0.80;;
2896;SDS011;1458;49.728;9.228;2023-04-03T02:11:43;0.90;;;0.90;;
2896;SDS011;1458;49.728;9.228;2023-04-03T02:14:10;0.80;;;0.80;;
2896;SDS011;1458;49.728;9.228;2023-04-03T02:16:38;0.83;;;0.83;;
2896;SDS011;1458;49.728;9.228;2023-04-03T02:19:06;0.80;;;0.80;;
2896;SDS011;1458;49.728;9.228;2023-04-03T02:21:35;0.90;;;0.90;;
2896;SDS011;1458;49.728;9.228;2023-04-03T02:24:02;0.90;;;0.90;;
2896;SDS011;1458;49.728;9.228;2023-04-03T02:26:31;0.97;;;0.97;;
2896;SDS011;1458;49.728;9.228;2023-04-03T02:28:58;0.80;;;0.80;;
2896;SDS011;1458;49.728;9.228;2023-04-03T02:31:26;0.80;;;0.80;;
2896;SDS011;1458;49.728;9.228;2023-04-03T02:33:53;0.80;;;0.80;;
2896;SDS011;1458;49.728;9.228;2023-04-03T02:36:21;0.80;;;0.80;;
2896;SDS011;1458;49.728;9.228;2023-04-03T02:38:55;0.80;;;0.80;;
2896;SDS011;1458;49.728;9.228;2023-04-03T02:41:22;0.93;;;0.93;;
2896;SDS011;1458;49.728;9.228;2023-04-03T02:43:51;0.90;;;0.90;;
2896;SDS011;1458;49.728;9.228;2023-04-03T02:46:18;0.90;;;0.90;;
2896;SDS011;1458;49.728;9.228;2023-04-03T02:48:46;0.90;;;0.90;;
2896;SDS011;1458;49.728;9.228;2023-04-03T02:51:14;0.90;;;0.90;;
2896;SDS011;1458;49.728;9.228;2023-04-03T02:53:41;0.87;;;0.87;;
2896;SDS011;1458;49.728;9.228;2023-04-03T02:56:15;0.80;;;0.80;;
2896;SDS011;1458;49.728;9.228;2023-04-03T02:58:43;0.80;;;0.80;;
2896;SDS011;1458;49.728;9.228;2023-04-03T03:01:11;0.90;;;0.90;;
2896;SDS011;1458;49.728;9.228;2023-04-03T03:03:39;0.80;;;0.80;;
2896;SDS011;1458;49.728;9.228;2023-04-03T03:06:07;0.80;;;0.80;;
2896;SDS011;1458;49.728;9.228;2023-04-03T03:08:38;0.70;;;0.70;;
2896;SDS011;1458;49.728;9.228;2023-04-03T03:11:06;0.70;;;0.70;;
2896;SDS011;1458;49.728;9.228;2023-04-03T03:13:35;0.80;;;0.80;;
2896;SDS011;1458;49.728;9.228;2023-04-03T03:16:03;0.70;;;0.70;;
2896;SDS011;1458;49.728;9.228;2023-04-03T03:18:31;0.80;;;0.80;;
2896;SDS011;1458;49.728;9.228;2023-04-03T03:21:00;0.80;;;0.80;;
2896;SDS011;1458;49.728;9.228;2023-04-03T03:23:29;0.90;;;0.90;;
2896;SDS011;1458;49.728;9.228;2023-04-03T03:25:59;0.80;;;0.80;;
2896;SDS011;1458;49.728;9.228;2023-04-03T03:28:29;0.80;;;0.80;;
2896;SDS011;1458;49.728;9.228;2023-04-03T03:30:58;0.80;;;0.80;;
2896;SDS011;1458;49.728;9.228;2023-04-03T03:33:26;0.73;;;0.73;;
2896;SDS011;1458;49.728;9.228;2023-04-03T03:35:53;0.80;;;0.80;;
2896;SDS011;1458;49.728;9.228;2023-04-03T03:38:21;0.70;;;0.70;;
2896;SDS011;1458;49.728;9.228;2023-04-03T03:40:50;0.73;;;0.73;;
2896;SDS011;1458;49.728;9.228;2023-04-03T03:43:19;0.80;;;0.80;;
2896;SDS011;1458;49.728;9.228;2023-04-03T03:45:50;0.80;;;0.80;;
2896;SDS011;1458;49.728;9.228;2023-04-03T03:48:19;0.80;;;0.80;;
2896;SDS011;1458;49.728;9.228;2023-04-03T03:50:48;0.80;;;0.80;;
2896;SDS011;1458;49.728;9.228;2023-04-03T03:53:17;0.70;;;0.70;;
2896;SDS011;1458;49.728;9.228;2023-04-03T03:55:46;0.70;;;0.70;;
2896;SDS011;1458;49.728;9.228;2023-04-03T03:58:13;0.80;;;0.80;;
2896;SDS011;1458;49.728;9.228;2023-04-03T04:00:41;0.80;;;0.80;;
2896;SDS011;1458;49.728;9.228;2023-04-03T04:03:09;0.97;;;0.97;;
2896;SDS011;1458;49.728;9.228;2023-04-03T04:05:38;0.90;;;0.90;;
2896;SDS011;1458;49.728;9.228;2023-04-03T04:08:06;0.87;;;0.87;;
2896;SDS011;1458;49.728;9.228;2023-04-03T04:10:33;0.80;;;0.80;;
2896;SDS011;1458;49.728;9.228;2023-04-03T04:13:01;0.80;;;0.80;;
2896;SDS011;1458;49.728;9.228;2023-04-03T04:15:30;0.80;;;0.80;;
2896;SDS011;1458;49.728;9.228;2023-04-03T04:18:00;0.90;;;0.90;;
2896;SDS011;1458;49.728;9.228;2023-04-03T04:20:29;0.80;;;0.80;;
2896;SDS011;1458;49.728;9.228;2023-04-03T04:22:58;0.80;;;0.80;;
2896;SDS011;1458;49.728;9.228;2023-04-03T04:25:26;0.80;;;0.80;;
2896;SDS011;1458;49.728;9.228;2023-04-03T04:27:54;0.80;;;0.80;;
2896;SDS011;1458;49.728;9.228;2023-04-03T04:30:21;0.80;;;0.80;;
2896;SDS011;1458;49.728;9.228;2023-04-03T04:32:50;0.83;;;0.83;;
2896;SDS011;1458;49.728;9.228;2023-04-03T04:35:17;0.80;;;0.80;;
2896;SDS011;1458;49.728;9.228;2023-04-03T04:37:47;0.80;;;0.80;;
2896;SDS011;1458;49.728;9.228;2023-04-03T04:40:17;0.80;;;0.80;;
2896;SDS011;1458;49.728;9.228;2023-04-03T04:42:45;0.80;;;0.80;;
2896;SDS011;1458;49.728;9.228;2023-04-03T04:45:13;0.80;;;0.80;;
2896;SDS011;1458;49.728;9.228;2023-04-03T04:47:43;0.70;;;0.70;;
2896;SDS011;1458;49.728;9.228;2023-04-03T04:50:11;0.70;;;0.70;;
2896;SDS011;1458;49.728;9.228;2023-04-03T04:52:39;0.60;;;0.60;;
2896;SDS011;1458;49.728;9.228;2023-04-03T04:55:07;0.70;;;0.70;;
2896;SDS011;1458;49.728;9.228;2023-04-03T04:57:36;0.70;;;0.70;;
2896;SDS011;1458;49.728;9.228;2023-04-03T05:00:05;0.70;;;0.70;;
2896;SDS011;1458;49.728;9.228;2023-04-03T05:02:34;0.90;;;0.90;;
2896;SDS011;1458;49.728;9.228;2023-04-03T05:05:01;0.80;;;0.80;;
2896;SDS011;1458;49.728;9.228;2023-04-03T05:07:30;0.80;;;0.80;;
2896;SDS011;1458;49.728;9.228;2023-04-03T05:09:58;0.80;;;0.80;;
2896;SDS011;1458;49.728;9.228;2023-04-03T05:12:26;0.90;;;0.90;;
2896;SDS011;1458;49.728;9.228;2023-04-03T05:14:59;0.70;;;0.70;;
2896;SDS011;1458;49.728;9.228;2023-04-03T05:17:29;0.70;;;0.70;;
2896;SDS011;1458;49.728;9.228;2023-04-03T05:19:59;0.80;;;0.80;;
2896;SDS011;1458;49.728;9.228;2023-04-03T05:22:28;0.80;;;0.80;;
2896;SDS011;1458;49.728;9.228;2023-04-03T05:25:01;0.80;;;0.80;;
2896;SDS011;1458;49.728;9.228;2023-04-03T05:27:30;0.77;;;0.77;;
2896;SDS011;1458;49.728;9.228;2023-04-03T05:29:59;0.77;;;0.77;;
2896;SDS011;1458;49.728;9.228;2023-04-03T05:32:28;0.80;;;0.80;;
2896;SDS011;1458;49.728;9.228;2023-04-03T05:35:10;0.70;;;0.70;;
2896;SDS011;1458;49.728;9.228;2023-04-03T05:37:39;0.70;;;0.70;;
2896;SDS011;1458;49.728;9.228;2023-04-03T05:40:08;0.70;;;0.70;;
2896;SDS011;1458;49.728;9.228;2023-04-03T05:42:40;0.70;;;0.70;;
2896;SDS011;1458;49.728;9.228;2023-04-03T05:45:09;0.70;;;0.70;;
2896;SDS011;1458;49.728;9.228;2023-04-03T05:47:37;0.70;;;0.70;;
2896;SDS011;1458;49.728;9.228;2023-04-03T05:50:09;0.80;;;0.80;;
2896;SDS011;1458;49.728;9.228;2023-04-03T05:52:37;0.80;;;0.80;;
2896;SDS011;1458;49.728;9.228;2023-04-03T05:55:09;0.70;;;0.70;;
2896;SDS011;1458;49.728;9.228;2023-04-03T05:57:37;0.90;;;0.90;;
2896;SDS011;1458;49.728;9.228;2023-04-03T06:00:05;0.80;;;0.80;;
2896;SDS011;1458;49.728;9.228;2023-04-03T06:02:42;0.70;;;0.70;;
2896;SDS011;1458;49.728;9.228;2023-04-03T06:05:15;0.70;;;0.70;;
2896;SDS011;1458;49.728;9.228;2023-04-03T06:07:45;0.70;;;0.70;;
2896;SDS011;1458;49.728;9.228;2023-04-03T06:10:14;0.70;;;0.70;;
2896;SDS011;1458;49.728;9.228;2023-04-03T06:12:43;0.70;;;0.70;;
2896;SDS011;1458;49.728;9.228;2023-04-03T06:15:13;0.70;;;0.70;;
2896;SDS011;1458;49.728;9.228;2023-04-03T06:17:42;0.70;;;0.70;;
2896;SDS011;1458;49.728;9.228;2023-04-03T06:20:10;0.70;;;0.70;;
2896;SDS011;1458;49.728;9.228;2023-04-03T06:22:39;0.70;;;0.70;;
2896;SDS011;1458;49.728;9.228;2023-04-03T06:25:08;0.70;;;0.70;;
2896;SDS011;1458;49.728;9.228;2023-04-03T06:27:36;0.70;;;0.70;;
2896;SDS011;1458;49.728;9.228;2023-04-03T06:30:04;0.70;;;0.70;;
2896;SDS011;1458;49.728;9.228;2023-04-03T06:32:34;0.70;;;0.70;;
2896;SDS011;1458;49.728;9.228;2023-04-03T06:35:02;0.70;;;0.70;;
2896;SDS011;1458;49.728;9.228;2023-04-03T06:37:30;0.73;;;0.73;;
2896;SDS011;1458;49.728;9.228;2023-04-03T06:39:58;0.80;;;0.80;;
2896;SDS011;1458;49.728;9.228;2023-04-03T06:42:26;0.80;;;0.80;;
2896;SDS011;1458;49.728;9.228;2023-04-03T06:45:00;0.80;;;0.80;;
2896;SDS011;1458;49.728;9.228;2023-04-03T06:47:27;0.90;;;0.90;;
2896;SDS011;1458;49.728;9.228;2023-04-03T06:49:56;1.00;;;1.00;;
2896;SDS011;1458;49.728;9.228;2023-04-03T06:52:24;1.00;;;1.00;;
2896;SDS011;1458;49.728;9.228;2023-04-03T06:54:51;1.47;;;1.47;;
2896;SDS011;1458;49.728;9.228;2023-04-03T06:57:22;1.60;;;1.60;;
2896;SDS011;1458;49.728;9.228;2023-04-03T06:59:50;3.00;;;3.00;;
2896;SDS011;1458;49.728;9.228;2023-04-03T07:02:18;4.10;;;4.10;;
2896;SDS011;1458;49.728;9.228;2023-04-03T07:04:46;4.80;;;4.80;;
2896;SDS011;1458;49.728;9.228;2023-04-03T07:07:15;5.93;;;5.93;;
2896;SDS011;1458;49.728;9.228;2023-04-03T07:09:42;6.20;;;6.20;;
2896;SDS011;1458;49.728;9.228;2023-04-03T07:12:12;6.47;;;6.47;;
2896;SDS011;1458;49.728;9.228;2023-04-03T07:14:40;6.90;;;6.80;;
2896;SDS011;1458;49.728;9.228;2023-04-03T07:17:07;6.83;;;6.73;;
2896;SDS011;1458;49.728;9.228;2023-04-03T07:19:35;6.57;;;6.57;;
2896;SDS011;1458;49.728;9.228;2023-04-03T07:22:02;7.30;;;7.20;;
2896;SDS011;1458;49.728;9.228;2023-04-03T07:24:32;7.43;;;7.33;;
2896;SDS011;1458;49.728;9.228;2023-04-03T07:26:59;7.20;;;7.10;;
2896;SDS011;1458;49.728;9.228;2023-04-03T07:29:27;6.30;;;6.30;;
2896;SDS011;1458;49.728;9.228;2023-04-03T07:31:55;7.60;;;7.50;;
2896;SDS011;1458;49.728;9.228;2023-04-03T07:34:23;7.50;;;7.40;;
2896;SDS011;1458;49.728;9.228;2023-04-03T07:36:50;7.93;;;7.83;;
2896;SDS011;1458;49.728;9.228;2023-04-03T07:39:18;7.80;;;7.70;;
2896;SDS011;1458;49.728;9.228;2023-04-03T07:41:47;7.70;;;7.60;;
2896;SDS011;1458;49.728;9.228;2023-04-03T07:44:14;8.17;;;8.07;;
2896;SDS011;1458;49.728;9.228;2023-04-03T07:46:42;8.10;;;8.00;;
2896;SDS011;1458;49.728;9.228;2023-04-03T07:49:09;8.20;;;8.10;;
2896;SDS011;1458;49.728;9.228;2023-04-03T07:51:37;8.50;;;8.40;;
2896;SDS011;1458;49.728;9.228;2023-04-03T07:54:05;9.20;;;9.00;;
2896;SDS011;1458;49.728;9.228;2023-04-03T07:56:33;8.70;;;8.60;;
2896;SDS011;1458;49.728;9.228;2023-04-03T07:59:02;8.30;;;8.20;;
2896;SDS011;1458;49.728;9.228;2023-04-03T08:01:29;8.40;;;8.30;;
2896;SDS011;1458;49.728;9.228;2023-04-03T08:03:58;9.20;;;9.00;;
2896;SDS011;1458;49.728;9.228;2023-04-03T08:06:26;9.10;;;8.90;;
2896;SDS011;1458;49.728;9.228;2023-04-03T08:08:57;8.80;;;8.70;;
2896;SDS011;1458;49.728;9.228;2023-04-03T08:11:25;9.00;;;8.80;;
2896;SDS011;1458;49.728;9.228;2023-04-03T08:13:53;9.30;;;9.10;;
2896;SDS011;1458;49.728;9.228;2023-04-03T08:16:23;9.60;;;9.40;;
2896;SDS011;1458;49.728;9.228;2023-04-03T08:18:52;9.50;;;9.30;;
2896;SDS011;1458;49.728;9.228;2023-04-03T08:21:20;9.47;;;9.27;;
2896;SDS011;1458;49.728;9.228;2023-04-03T08:23:48;10.20;;;10.00;;
2896;SDS011;1458;49.728;9.228;2023-04-03T08:26:17;9.80;;;9.60;;
2896;SDS011;1458;49.728;9.228;2023-04-03T08:28:47;9.97;;;9.77;;
2896;SDS011;1458;49.728;9.228;2023-04-03T08:31:16;10.03;;;9.83;;
2896;SDS011;1458;49.728;9.228;2023-04-03T08:33:46;9.80;;;9.60;;
2896;SDS011;1458;49.728;9.228;2023-04-03T08:36:18;9.00;;;8.80;;
2896;SDS011;1458;49.728;9.228;2023-04-03T08:38:47;9.70;;;9.50;;
2896;SDS011;1458;49.728;9.228;2023-04-03T08:41:16;10.20;;;10.00;;
2896;SDS011;1458;49.728;9.228;2023-04-03T08:43:58;10.33;;;10.13;;
2896;SDS011;1458;49.728;9.228;2023-04-03T08:46:38;10.70;;;10.50;;
2896;SDS011;1458;49.728;9.228;2023-04-03T08:49:21;10.67;;;10.40;;
2896;SDS011;1458;49.728;9.228;2023-04-03T08:51:54;10.60;;;10.40;;
2896;SDS011;1458;49.728;9.228;2023-04-03T08:54:32;11.03;;;10.73;;
2896;SDS011;1458;49.728;9.228;2023-04-03T08:57:07;10.80;;;10.50;;
2896;SDS011;1458;49.728;9.228;2023-04-03T08:59:37;10.90;;;10.60;;
2896;SDS011;1458;49.728;9.228;2023-04-03T09:02:15;11.30;;;11.00;;
2896;SDS011;1458;49.728;9.228;2023-04-03T09:04:54;11.50;;;11.20;;
2896;SDS011;1458;49.728;9.228;2023-04-03T09:07:22;11.10;;;10.80;;
2896;SDS011;1458;49.728;9.228;2023-04-03T09:10:00;11.50;;;11.20;;
2896;SDS011;1458;49.728;9.228;2023-04-03T09:12:32;11.10;;;10.80;;
2896;SDS011;1458;49.728;9.228;2023-04-03T09:15:07;11.27;;;10.97;;
2896;SDS011;1458;49.728;9.228;2023-04-03T09:17:47;11.50;;;11.20;;
2896;SDS011;1458;49.728;9.228;2023-04-03T09:20:26;11.50;;;11.20;;
2896;SDS011;1458;49.728;9.228;2023-04-03T09:23:10;11.50;;;11.20;;
2896;SDS011;1458;49.728;9.228;2023-04-03T09:25:46;11.30;;;11.00;;
2896;SDS011;1458;49.728;9.228;2023-04-03T09:28:14;11.40;;;11.10;;
2896;SDS011;1458;49.728;9.228;2023-04-03T09:30:42;11.50;;;11.20;;
2896;SDS011;1458;49.728;9.228;2023-04-03T09:33:09;11.40;;;11.10;;
2896;SDS011;1458;49.728;9.228;2023-04-03T09:35:40;11.10;;;10.80;;
2896;SDS011;1458;49.728;9.228;2023-04-03T09:38:17;11.03;;;10.73;;
2896;SDS011;1458;49.728;9.228;2023-04-03T09:40:48;11.10;;;10.80;;
2896;SDS011;1458;49.728;9.228;2023-04-03T09:43:23;11.67;;;11.37;;
2896;SDS011;1458;49.728;9.228;2023-04-03T09:45:56;11.20;;;10.90;;
2896;SDS011;1458;49.728;9.228;2023-04-03T09:48:49;11.03;;;10.73;;
2896;SDS011;1458;49.728;9.228;2023-04-03T09:51:19;10.90;;;10.60;;
2896;SDS011;1458;49.728;9.228;2023-04-03T09:53:54;10.70;;;10.50;;
2896;SDS011;1458;49.728;9.228;2023-04-03T09:56:23;11.20;;;10.90;;
2896;SDS011;1458;49.728;9.228;2023-04-03T09:59:06;11.40;;;11.10;;
2896;SDS011;1458;49.728;9.228;2023-04-03T10:01:42;11.10;;;10.80;;
2896;SDS011;1458;49.728;9.228;2023-04-03T10:04:24;11.00;;;10.70;;
2896;SDS011;1458;49.728;9.228;2023-04-03T10:06:54;11.00;;;10.70;;
2896;SDS011;1458;49.728;9.228;2023-04-03T10:09:23;11.13;;;10.83;;
2896;SDS011;1458;49.728;9.228;2023-04-03T10:12:00;11.40;;;11.10;;
2896;SDS011;1458;49.728;9.228;2023-04-03T10:14:31;11.70;;;11.40;;
2896;SDS011;1458;49.728;9.228;2023-04-03T10:17:06;11.70;;;11.40;;
2896;SDS011;1458;49.728;9.228;2023-04-03T10:19:45;12.00;;;11.70;;
2896;SDS011;1458;49.728;9.228;2023-04-03T10:22:24;11.90;;;11.60;;
2896;SDS011;1458;49.728;9.228;2023-04-03T10:25:07;11.47;;;11.17;;
2896;SDS011;1458;49.728;9.228;2023-04-03T10:27:45;11.77;;;11.47;;
2896;SDS011;1458;49.728;9.228;2023-04-03T10:30:22;11.73;;;11.43;;
2896;SDS011;1458;49.728;9.228;2023-04-03T10:33:07;11.90;;;11.60;;
2896;SDS011;1458;49.728;9.228;2023-04-03T10:35:49;11.97;;;11.67;;
2896;SDS011;1458;49.728;9.228;2023-04-03T10:38:33;11.70;;;11.40;;
2896;SDS011;1458;49.728;9.228;2023-04-03T10:41:11;11.70;;;11.40;;
2896;SDS011;1458;49.728;9.228;2023-04-03T10:43:47;11.60;;;11.30;;
2896;SDS011;1458;49.728;9.228;2023-04-03T10:46:25;11.70;;;11.40;;
2896;SDS011;1458;49.728;9.228;2023-04-03T10:49:01;13.00;;;12.60;;
2896;SDS011;1458;49.728;9.228;2023-04-03T10:51:44;12.10;;;11.80;;
2896;SDS011;1458;49.728;9.228;2023-04-03T10:54:18;11.93;;;11.63;;
2896;SDS011;1458;49.728;9.228;2023-04-03T10:56:52;12.33;;;12.03;;
2896;SDS011;1458;49.728;9.228;2023-04-03T10:59:23;12.87;;;12.47;;
2896;SDS011;1458;49.728;9.228;2023-04-03T11:01:58;13.10;;;12.70;;
2896;SDS011;1458;49.728;9.228;2023-04-03T11:04:30;13.30;;;12.90;;
2896;SDS011;1458;49.728;9.228;2023-04-03T11:07:04;13.00;;;12.60;;
2896;SDS011;1458;49.728;9.228;2023-04-03T11:09:43;13.10;;;12.70;;
2896;SDS011;1458;49.728;9.228;2023-04-03T11:12:15;13.30;;;12.90;;
2896;SDS011;1458;49.728;9.228;2023-04-03T11:14:48;12.90;;;12.50;;
2896;SDS011;1458;49.728;9.228;2023-04-03T11:17:21;13.17;;;12.77;;
2896;SDS011;1458;49.728;9.228;2023-04-03T11:19:58;12.93;;;12.53;;
2896;SDS011;1458;49.728;9.228;2023-04-03T11:22:33;13.10;;;12.70;;
2896;SDS011;1458;49.728;9.228;2023-04-03T11:25:06;13.20;;;12.80;;
2896;SDS011;1458;49.728;9.228;2023-04-03T11:27:48;13.10;;;12.70;;
2896;SDS011;1458;49.728;9.228;2023-04-03T11:30:22;13.40;;;13.00;;
2896;SDS011;1458;49.728;9.228;2023-04-03T11:33:02;13.20;;;12.80;;
2896;SDS011;1458;49.728;9.228;2023-04-03T11:35:43;13.13;;;12.73;;
2896;SDS011;1458;49.728;9.228;2023-04-03T11:38:14;12.93;;;12.53;;
2896;SDS011;1458;49.728;9.228;2023-04-03T11:40:50;13.33;;;12.93;;
2896;SDS011;1458;49.728;9.228;2023-04-03T11:43:22;13.40;;;13.00;;
2896;SDS011;1458;49.728;9.228;2023-04-03T11:45:53;13.40;;;13.00;;
2896;SDS011;1458;49.728;9.228;2023-04-03T12:00:47;14.17;;;13.67;;
2896;SDS011;1458;49.728;9.228;2023-04-03T12:12:56;13.70;;;13.30;;
2896;SDS011;1458;49.728;9.228;2023-04-03T12:18:40;13.70;;;13.30;;
2896;SDS011;1458;49.728;9.228;2023-04-03T12:21:10;13.50;;;13.10;;
2896;SDS011;1458;49.728;9.228;2023-04-03T12:26:30;13.70;;;13.30;;
2896;SDS011;1458;49.728;9.228;2023-04-03T12:29:10;13.90;;;13.50;;
2896;SDS011;1458;49.728;9.228;2023-04-03T12:31:49;13.47;;;13.07;;
2896;SDS011;1458;49.728;9.228;2023-04-03T12:34:45;13.47;;;13.07;;
2896;SDS011;1458;49.728;9.228;2023-04-03T12:37:32;13.80;;;13.40;;
2896;SDS011;1458;49.728;9.228;2023-04-03T12:40:15;13.80;;;13.40;;
2896;SDS011;1458;49.728;9.228;2023-04-03T12:42:56;13.80;;;13.40;;
2896;SDS011;1458;49.728;9.228;2023-04-03T12:45:43;13.90;;;13.50;;
2896;SDS011;1458;49.728;9.228;2023-04-03T12:48:18;13.90;;;13.50;;
2896;SDS011;1458;49.728;9.228;2023-04-03T12:50:52;13.90;;;13.50;;
2896;SDS011;1458;49.728;9.228;2023-04-03T12:53:21;13.73;;;13.33;;
2896;SDS011;1458;49.728;9.228;2023-04-03T12:55:53;13.90;;;13.50;;
2896;SDS011;1458;49.728;9.228;2023-04-03T12:58:22;13.80;;;13.40;;
2896;SDS011;1458;49.728;9.228;2023-04-03T13:00:59;14.30;;;13.80;;
2896;SDS011;1458;49.728;9.228;2023-04-03T13:03:30;14.90;;;14.40;;
2896;SDS011;1458;49.728;9.228;2023-04-03T13:05:59;15.33;;;14.83;;
2896;SDS011;1458;49.728;9.228;2023-04-03T13:08:28;14.77;;;14.27;;
2896;SDS011;1458;49.728;9.228;2023-04-03T13:10:58;14.60;;;14.10;;
2896;SDS011;1458;49.728;9.228;2023-04-03T13:13:29;14.70;;;14.20;;
2896;SDS011;1458;49.728;9.228;2023-04-03T13:15:57;14.60;;;14.10;;
2896;SDS011;1458;49.728;9.228;2023-04-03T13:18:27;14.50;;;14.00;;
2896;SDS011;1458;49.728;9.228;2023-04-03T13:20:59;14.63;;;14.13;;
2896;SDS011;1458;49.728;9.228;2023-04-03T13:23:32;14.70;;;14.20;;
2896;SDS011;1458;49.728;9.228;2023-04-03T13:26:03;13.90;;;13.50;;
2896;SDS011;1458;49.728;9.228;2023-04-03T13:28:32;14.60;;;14.10;;
2896;SDS011;1458;49.728;9.228;2023-04-03T13:31:05;14.20;;;13.70;;
2896;SDS011;1458;49.728;9.228;2023-04-03T13:33:50;14.97;;;14.47;;
2896;SDS011;1458;49.728;9.228;2023-04-03T13:36:26;14.77;;;14.27;;
2896;SDS011;1458;49.728;9.228;2023-04-03T13:38:59;14.70;;;14.20;;
2896;SDS011;1458;49.728;9.228;2023-04-03T13:41:30;14.70;;;14.20;;
2896;SDS011;1458;49.728;9.228;2023-04-03T13:44:17;14.60;;;14.10;;
2896;SDS011;1458;49.728;9.228;2023-04-03T13:46:55;14.80;;;14.30;;
2896;SDS011;1458;49.728;9.228;2023-04-03T13:49:29;14.70;;;14.20;;
2896;SDS011;1458;49.728;9.228;2023-04-03T13:52:02;14.97;;;14.47;;
2896;SDS011;1458;49.728;9.228;2023-04-03T13:54:50;14.80;;;14.30;;
2896;SDS011;1458;49.728;9.228;2023-04-03T13:57:22;14.70;;;14.20;;
2896;SDS011;1458;49.728;9.228;2023-04-03T13:59:50;14.40;;;13.90;;
2896;SDS011;1458;49.728;9.228;2023-04-03T14:02:19;14.73;;;14.23;;
2896;SDS011;1458;49.728;9.228;2023-04-03T14:04:52;14.70;;;14.20;;
2896;SDS011;1458;49.728;9.228;2023-04-03T14:07:26;14.97;;;14.47;;
2896;SDS011;1458;49.728;9.228;2023-04-03T14:09:56;15.30;;;14.80;;
2896;SDS011;1458;49.728;9.228;2023-04-03T14:12:26;15.60;;;15.00;;
2896;SDS011;1458;49.728;9.228;2023-04-03T14:14:58;14.90;;;14.40;;
2896;SDS011;1458;49.728;9.228;2023-04-03T14:17:27;15.50;;;14.90;;
2896;SDS011;1458;49.728;9.228;2023-04-03T14:19:57;15.60;;;15.00;;
2896;SDS011;1458;49.728;9.228;2023-04-03T14:22:27;15.10;;;14.60;;
2896;SDS011;1458;49.728;9.228;2023-04-03T14:24:57;15.30;;;14.80;;
2896;SDS011;1458;49.728;9.228;2023-04-03T14:27:26;14.70;;;14.20;;
2896;SDS011;1458;49.728;9.228;2023-04-03T14:29:56;15.53;;;14.93;;
2896;SDS011;1458;49.728;9.228;2023-04-03T14:32:26;15.90;;;15.30;;
2896;SDS011;1458;49.728;9.228;2023-04-03T14:34:53;15.00;;;14.50;;
2896;SDS011;1458;49.728;9.228;2023-04-03T14:37:24;15.30;;;14.80;;
2896;SDS011;1458;49.728;9.228;2023-04-03T14:39:55;14.90;;;14.40;;
2896;SDS011;1458;49.728;9.228;2023-04-03T14:42:25;15.30;;;14.80;;
2896;SDS011;1458;49.728;9.228;2023-04-03T14:44:56;15.27;;;14.77;;
2896;SDS011;1458;49.728;9.228;2023-04-03T14:47:24;15.60;;;15.00;;
2896;SDS011;1458;49.728;9.228;2023-04-03T14:49:54;15.00;;;14.50;;
2896;SDS011;1458;49.728;9.228;2023-04-03T14:52:24;15.33;;;14.73;;
2896;SDS011;1458;49.728;9.228;2023-04-03T14:54:55;14.63;;;14.13;;
2896;SDS011;1458;49.728;9.228;2023-04-03T14:57:23;15.03;;;14.53;;
2896;SDS011;1458;49.728;9.228;2023-04-03T14:59:52;14.40;;;13.90;;
2896;SDS011;1458;49.728;9.228;2023-04-03T15:02:27;15.73;;;15.13;;
2896;SDS011;1458;49.728;9.228;2023-04-03T15:04:57;15.10;;;14.60;;
2896;SDS011;1458;49.728;9.228;2023-04-03T15:07:28;15.10;;;14.60;;
2896;SDS011;1458;49.728;9.228;2023-04-03T15:09:59;14.93;;;14.43;;
2896;SDS011;1458;49.728;9.228;2023-04-03T15:12:36;15.20;;;14.70;;
2896;SDS011;1458;49.728;9.228;2023-04-03T15:15:04;15.00;;;14.50;;
2896;SDS011;1458;49.728;9.228;2023-04-03T15:17:32;15.30;;;14.80;;
2896;SDS011;1458;49.728;9.228;2023-04-03T15:20:02;15.00;;;14.50;;
2896;SDS011;1458;49.728;9.228;2023-04-03T15:22:33;15.33;;;14.73;;
2896;SDS011;1458;49.728;9.228;2023-04-03T15:25:01;15.17;;;14.67;;
2896;SDS011;1458;49.728;9.228;2023-04-03T15:27:28;16.00;;;15.40;;
2896;SDS011;1458;49.728;9.228;2023-04-03T15:29:56;15.30;;;14.70;;
2896;SDS011;1458;49.728;9.228;2023-04-03T15:32:23;15.40;;;14.80;;
2896;SDS011;1458;49.728;9.228;2023-04-03T15:34:51;15.50;;;14.90;;
2896;SDS011;1458;49.728;9.228;2023-04-03T15:37:20;15.53;;;14.93;;
2896;SDS011;1458;49.728;9.228;2023-04-03T15:39:49;15.40;;;14.90;;
2896;SDS011;1458;49.728;9.228;2023-04-03T15:42:17;15.10;;;14.60;;
2896;SDS011;1458;49.728;9.228;2023-04-03T15:44:44;15.20;;;14.70;;
2896;SDS011;1458;49.728;9.228;2023-04-03T15:47:12;15.47;;;14.87;;
2896;SDS011;1458;49.728;9.228;2023-04-03T15:49:40;15.50;;;14.90;;
2896;SDS011;1458;49.728;9.228;2023-04-03T15:52:07;15.60;;;15.00;;
2896;SDS011;1458;49.728;9.228;2023-04-03T15:54:35;15.60;;;15.00;;
2896;SDS011;1458;49.728;9.228;2023-04-03T15:57:05;15.33;;;14.83;;